createdAt,value
2022-09-11T00:01:33.285Z,22.33
2022-09-11T00:04:01.355Z,24.27
2022-09-11T00:06:30.956Z,18.48
2022-09-11T00:09:01.405Z,22.20
2022-09-11T00:11:33.253Z,20.00
2022-09-11T00:14:02.307Z,18.70
2022-09-11T00:16:33.803Z,18.98
2022-09-11T00:19:04.050Z,19.30
2022-09-11T00:21:32.086Z,19.38
2022-09-11T00:24:00.602Z,17.85
2022-09-11T00:26:30.547Z,16.45
2022-09-11T00:28:58.729Z,20.83
2022-09-11T00:31:29.805Z,15.75
2022-09-11T00:33:59.281Z,14.57
2022-09-11T00:36:29.055Z,18.25
2022-09-11T00:38:57.943Z,16.42
2022-09-11T00:41:29.138Z,14.50
2022-09-11T00:44:02.236Z,16.08
2022-09-11T00:46:41.593Z,18.58
2022-09-11T00:49:24.517Z,17.02
2022-09-11T00:51:56.059Z,16.55
2022-09-11T00:54:28.498Z,15.65
2022-09-11T00:57:00.327Z,14.48
2022-09-11T00:59:32.498Z,17.67
2022-09-11T01:02:01.082Z,15.48
2022-09-11T01:04:29.429Z,15.23
2022-09-11T01:07:00.047Z,17.33
2022-09-11T01:09:30.798Z,16.58
2022-09-11T01:12:06.677Z,15.85
2022-09-11T01:14:47.220Z,15.93
2022-09-11T01:17:24.632Z,16.80
2022-09-11T01:20:21.123Z,14.98
2022-09-11T01:23:20.557Z,13.00
2022-09-11T01:26:07.960Z,10.48
2022-09-11T01:28:46.569Z,10.10
2022-09-11T01:31:18.682Z,12.48
2022-09-11T01:33:52.748Z,17.08
2022-09-11T01:36:24.027Z,12.00
2022-09-11T01:38:55.350Z,12.85
2022-09-11T01:41:28.642Z,10.70
2022-09-11T01:44:03.650Z,11.77
2022-09-11T01:46:53.626Z,13.07
2022-09-11T01:49:26.766Z,13.25
2022-09-11T01:51:59.034Z,12.52
2022-09-11T01:54:31.795Z,13.40
2022-09-11T01:57:05.644Z,11.05
2022-09-11T01:59:41.329Z,12.65
2022-09-11T02:02:12.741Z,10.80
2022-09-11T02:04:47.110Z,12.30
2022-09-11T02:07:20.267Z,11.15
2022-09-11T02:09:53.978Z,8.60
2022-09-11T02:12:28.379Z,9.70
2022-09-11T02:14:58.140Z,10.88
2022-09-11T02:17:37.015Z,10.20
2022-09-11T02:20:06.631Z,7.28
2022-09-11T02:22:34.727Z,9.10
2022-09-11T02:25:03.279Z,8.95
2022-09-11T02:27:32.201Z,9.48
2022-09-11T02:30:01.845Z,8.52
2022-09-11T02:32:32.723Z,9.25
2022-09-11T02:35:01.158Z,9.85
2022-09-11T02:37:40.460Z,9.38
2022-09-11T02:40:39.689Z,9.80
2022-09-11T02:43:27.426Z,9.70
2022-09-11T02:46:16.119Z,8.93
2022-09-11T02:48:53.664Z,8.93
2022-09-11T02:51:29.327Z,8.45
2022-09-11T02:54:05.021Z,8.63
2022-09-11T02:56:40.683Z,6.93
2022-09-11T02:59:14.186Z,8.90
2022-09-11T03:04:18.328Z,8.95
2022-09-11T03:06:48.499Z,10.02
2022-09-11T03:09:16.891Z,8.75
2022-09-11T03:11:45.441Z,10.20
2022-09-11T03:14:14.225Z,10.30
2022-09-11T03:16:42.607Z,12.75
2022-09-11T03:19:12.036Z,10.30
2022-09-11T03:21:42.844Z,10.48
2022-09-11T03:24:12.738Z,13.25
2022-09-11T03:26:41.054Z,11.95
2022-09-11T03:29:09.550Z,14.30
2022-09-11T03:31:39.346Z,11.80
2022-09-11T03:34:07.701Z,17.38
2022-09-11T03:36:35.717Z,14.13
2022-09-11T03:39:05.573Z,16.48
2022-09-11T03:41:33.620Z,16.60
2022-09-11T03:44:01.709Z,16.63
2022-09-11T03:46:30.419Z,27.85
2022-09-11T03:48:59.513Z,13.73
2022-09-11T03:51:27.584Z,74.13
2022-09-11T03:53:55.599Z,16.40
2022-09-11T03:56:24.894Z,15.57
2022-09-11T03:58:57.206Z,14.55
2022-09-11T04:01:25.793Z,30.85
2022-09-11T04:03:54.191Z,14.23
2022-09-11T04:06:22.249Z,13.70
2022-09-11T04:08:50.166Z,14.10
2022-09-11T04:11:18.093Z,127.88
2022-09-11T04:13:47.771Z,20.40
2022-09-11T04:16:17.799Z,14.07
2022-09-11T04:18:47.214Z,10.40
2022-09-11T04:21:17.319Z,20.77
2022-09-11T04:23:45.955Z,14.35
2022-09-11T04:26:16.338Z,14.30
2022-09-11T04:28:44.851Z,12.95
2022-09-11T04:31:14.737Z,18.42
2022-09-11T04:33:43.041Z,27.45
2022-09-11T04:36:14.072Z,19.98
2022-09-11T04:38:42.548Z,19.90
2022-09-11T04:41:10.841Z,24.38
2022-09-11T04:43:40.449Z,16.42
2022-09-11T04:46:12.247Z,11.23
2022-09-11T04:48:46.175Z,17.95
2022-09-11T04:51:21.908Z,16.45
2022-09-11T04:53:50.116Z,16.08
2022-09-11T04:56:21.072Z,15.38
2022-09-11T04:58:55.982Z,17.45
2022-09-11T05:01:24.943Z,22.08
2022-09-11T05:03:56.484Z,18.95
2022-09-11T05:06:24.877Z,21.45
2022-09-11T05:08:52.865Z,21.83
2022-09-11T05:11:22.182Z,24.08
2022-09-11T05:13:50.134Z,26.42
2022-09-11T05:16:19.422Z,21.73
2022-09-11T05:18:52.900Z,20.65
2022-09-11T05:21:24.175Z,27.23
2022-09-11T05:23:54.436Z,27.65
2022-09-11T05:26:23.913Z,27.58
2022-09-11T05:28:55.768Z,23.00
2022-09-11T05:31:25.262Z,21.95
2022-09-11T05:33:54.479Z,22.30
2022-09-11T05:36:24.935Z,22.10
2022-09-11T05:38:53.095Z,23.67
2022-09-11T05:41:21.666Z,24.58
2022-09-11T05:43:50.054Z,22.85
2022-09-11T05:46:19.270Z,27.90
2022-09-11T05:48:48.336Z,30.63
2022-09-11T05:51:19.176Z,24.80
2022-09-11T05:53:50.247Z,22.02
2022-09-11T05:56:20.422Z,25.17
2022-09-11T05:58:51.624Z,27.55
2022-09-11T06:01:21.800Z,24.90
2022-09-11T06:03:50.708Z,27.83
2022-09-11T06:06:20.053Z,23.35
2022-09-11T06:08:52.284Z,24.55
2022-09-11T06:11:22.111Z,22.15
2022-09-11T06:13:50.892Z,26.27
2022-09-11T06:16:21.338Z,25.88
2022-09-11T06:18:50.229Z,27.52
2022-09-11T06:21:20.797Z,28.27
2022-09-11T06:23:52.009Z,29.23
2022-09-11T06:26:22.344Z,37.22
2022-09-11T06:28:51.241Z,27.67
2022-09-11T06:31:21.309Z,29.27
2022-09-11T06:33:50.986Z,29.17
2022-09-11T06:36:20.965Z,27.65
2022-09-11T06:38:54.645Z,29.50
2022-09-11T06:41:22.561Z,35.83
2022-09-11T06:43:50.540Z,30.15
2022-09-11T06:46:21.511Z,33.58
2022-09-11T06:48:50.692Z,29.23
2022-09-11T06:51:20.533Z,32.88
2022-09-11T06:53:50.637Z,30.30
2022-09-11T06:56:19.731Z,27.88
2022-09-11T06:58:47.796Z,29.13
2022-09-11T07:01:18.764Z,35.72
2022-09-11T07:03:48.660Z,36.95
2022-09-11T07:06:18.389Z,28.98
2022-09-11T07:08:53.444Z,28.92
2022-09-11T07:11:21.867Z,36.92
2022-09-11T07:13:50.234Z,28.38
2022-09-11T07:16:18.898Z,26.83
2022-09-11T07:18:48.315Z,55.55
2022-09-11T07:21:17.924Z,22.52
2022-09-11T07:23:48.865Z,21.70
2022-09-11T07:26:19.317Z,21.10
2022-09-11T07:28:49.111Z,22.13
2022-09-11T07:31:21.003Z,27.30
2022-09-11T07:33:50.392Z,45.15
2022-09-11T07:36:20.328Z,29.85
2022-09-11T07:38:50.852Z,22.17
2022-09-11T07:41:22.295Z,20.67
2022-09-11T07:43:54.980Z,22.60
2022-09-11T07:46:24.366Z,19.98
2022-09-11T07:48:52.357Z,23.05
2022-09-11T07:51:21.350Z,19.42
2022-09-11T07:53:51.043Z,23.63
2022-09-11T07:56:23.662Z,25.75
2022-09-11T07:58:52.511Z,23.35
2022-09-11T08:01:21.997Z,28.50
2022-09-11T08:03:54.420Z,20.30
2022-09-11T08:06:23.841Z,23.88
2022-09-11T08:08:54.464Z,18.95
2022-09-11T08:11:24.542Z,18.70
2022-09-11T08:13:53.644Z,22.00
2022-09-11T08:16:23.909Z,19.63
2022-09-11T08:18:53.657Z,23.13
2022-09-11T08:21:22.245Z,22.25
2022-09-11T08:23:50.602Z,23.98
2022-09-11T08:26:22.407Z,25.27
2022-09-11T08:28:53.553Z,22.83
2022-09-11T08:31:23.596Z,19.15
2022-09-11T08:33:51.527Z,21.25
2022-09-11T08:36:20.029Z,20.67
2022-09-11T08:38:48.784Z,22.75
2022-09-11T08:41:29.840Z,19.33
2022-09-11T08:44:04.185Z,22.40
2022-09-11T08:46:36.860Z,20.90
2022-09-11T08:49:13.065Z,20.67
2022-09-11T08:51:41.220Z,20.63
2022-09-11T08:54:20.294Z,19.13
2022-09-11T08:56:48.680Z,18.85
2022-09-11T08:59:27.452Z,18.83
2022-09-11T09:02:03.605Z,16.05
2022-09-11T09:04:52.105Z,16.98
2022-09-11T09:07:29.809Z,15.98
2022-09-11T09:10:04.334Z,27.23
2022-09-11T09:12:45.647Z,17.60
2022-09-11T09:15:29.198Z,16.35
2022-09-11T09:18:00.675Z,15.20
2022-09-11T09:20:33.342Z,13.65
2022-09-11T09:23:05.003Z,11.98
2022-09-11T09:25:38.233Z,11.10
2022-09-11T09:28:15.049Z,8.63
2022-09-11T09:30:52.038Z,11.38
2022-09-11T09:33:32.724Z,9.43
2022-09-11T09:36:15.472Z,10.15
2022-09-11T09:38:44.369Z,11.30
2022-09-11T09:41:28.763Z,9.88
2022-09-11T09:44:01.731Z,9.93
2022-09-11T09:46:37.560Z,9.20
2022-09-11T09:49:05.719Z,9.98
2022-09-11T09:51:35.316Z,10.73
2022-09-11T09:54:04.332Z,9.73
2022-09-11T09:56:35.557Z,21.85
2022-09-11T09:59:14.900Z,8.32
2022-09-11T10:01:55.022Z,9.85
2022-09-11T10:04:25.141Z,10.40
2022-09-11T10:06:55.296Z,9.85
2022-09-11T10:09:29.796Z,10.00
2022-09-11T10:12:02.432Z,9.20
2022-09-11T10:14:51.166Z,9.77
2022-09-11T10:17:32.266Z,9.18
2022-09-11T10:20:22.347Z,10.35
2022-09-11T10:22:51.335Z,8.93
2022-09-11T10:25:21.643Z,9.02
2022-09-11T10:28:03.226Z,9.02
2022-09-11T10:30:34.513Z,7.75
2022-09-11T10:33:07.839Z,9.23
2022-09-11T10:35:37.713Z,6.50
2022-09-11T10:38:27.633Z,5.85
2022-09-11T10:40:59.240Z,4.63
2022-09-11T10:43:35.638Z,5.18
2022-09-11T10:46:06.287Z,5.07
2022-09-11T10:48:43.777Z,4.75
2022-09-11T10:51:13.986Z,4.55
2022-09-11T10:54:00.276Z,4.70
2022-09-11T10:56:28.569Z,3.65
2022-09-11T10:59:02.145Z,4.57
2022-09-11T11:01:30.148Z,3.28
2022-09-11T11:03:59.482Z,3.08
2022-09-11T11:06:45.964Z,5.43
2022-09-11T11:09:37.228Z,3.33
2022-09-11T11:12:32.288Z,3.40
2022-09-11T11:15:28.181Z,3.80
2022-09-11T11:18:19.580Z,3.50
2022-09-11T11:20:57.565Z,2.50
2022-09-11T11:23:44.400Z,3.00
2022-09-11T11:26:27.582Z,2.90
2022-09-11T11:29:24.155Z,2.30
2022-09-11T11:32:05.818Z,2.30
2022-09-11T11:34:57.174Z,1.88
2022-09-11T11:37:32.266Z,2.10
2022-09-11T11:40:06.458Z,1.95
2022-09-11T11:42:38.701Z,2.10
2022-09-11T11:45:13.752Z,1.30
2022-09-11T11:47:44.821Z,1.30
2022-09-11T11:50:23.560Z,2.08
2022-09-11T11:52:59.897Z,4.72
2022-09-11T11:55:30.623Z,1.77
2022-09-11T11:58:07.188Z,1.80
2022-09-11T12:00:40.613Z,1.95
2022-09-11T12:03:16.123Z,1.30
2022-09-11T12:05:44.562Z,1.17
2022-09-11T12:08:16.630Z,1.52
2022-09-11T12:10:56.798Z,1.48
2022-09-11T12:13:30.649Z,1.33
2022-09-11T12:16:06.457Z,1.00
2022-09-11T12:18:37.873Z,1.35
2022-09-11T12:21:41.296Z,1.10
2022-09-11T12:24:21.345Z,0.90
2022-09-11T12:27:14.563Z,1.13
2022-09-11T12:29:54.025Z,1.00
2022-09-11T12:32:43.311Z,0.88
2022-09-11T12:35:38.448Z,1.20
2022-09-11T12:38:19.081Z,1.38
2022-09-11T12:40:53.741Z,3.17
2022-09-11T12:43:30.988Z,1.13
2022-09-11T12:45:59.029Z,1.10
2022-09-11T12:48:39.165Z,1.05
2022-09-11T12:51:17.716Z,1.20
2022-09-11T12:53:48.328Z,0.90
2022-09-11T12:56:21.701Z,1.20
2022-09-11T12:58:56.664Z,1.10
2022-09-11T13:01:27.374Z,2.65
2022-09-11T13:04:03.745Z,1.00
2022-09-11T13:06:41.551Z,0.98
2022-09-11T13:09:20.305Z,0.98
2022-09-11T13:11:51.081Z,1.10
2022-09-11T13:14:51.343Z,1.00
2022-09-11T13:17:30.099Z,1.20
2022-09-11T13:20:25.631Z,1.00
2022-09-11T13:22:58.443Z,1.17
2022-09-11T13:25:28.349Z,0.93
2022-09-11T13:28:02.209Z,1.40
2022-09-11T13:30:30.777Z,1.00
2022-09-11T13:33:06.737Z,1.00
2022-09-11T13:35:36.308Z,1.00
2022-09-11T13:38:08.830Z,0.90
2022-09-11T13:40:54.576Z,0.73
2022-09-11T13:43:29.627Z,0.93
2022-09-11T13:46:23.581Z,1.05
2022-09-11T13:48:56.377Z,1.10
2022-09-11T13:51:29.970Z,0.98
2022-09-11T13:54:03.906Z,0.85
2022-09-11T13:56:45.853Z,0.80
2022-09-11T13:59:35.135Z,0.80
2022-09-11T14:02:06.112Z,0.80
2022-09-11T14:04:41.604Z,0.90
2022-09-11T14:07:20.222Z,1.00
2022-09-11T14:09:50.793Z,0.65
2022-09-11T14:12:20.495Z,0.60
2022-09-11T14:14:55.555Z,0.82
2022-09-11T14:17:24.407Z,0.70
2022-09-11T14:20:00.376Z,0.95
2022-09-11T14:22:33.626Z,1.52
2022-09-11T14:25:19.385Z,0.70
2022-09-11T14:27:48.877Z,0.70
2022-09-11T14:30:37.248Z,0.75
2022-09-11T14:33:19.702Z,0.80
2022-09-11T14:40:33.424Z,0.60
2022-09-11T14:43:03.329Z,0.60
2022-09-11T14:45:33.013Z,0.50
2022-09-11T14:48:01.520Z,0.88
2022-09-11T14:50:31.142Z,0.50
2022-09-11T14:52:59.917Z,0.70
2022-09-11T14:55:28.134Z,0.75
2022-09-11T14:57:56.450Z,0.70
2022-09-11T15:00:24.890Z,0.50
2022-09-11T15:02:54.342Z,0.70
2022-09-11T15:05:24.613Z,0.60
2022-09-11T15:07:53.102Z,0.50
2022-09-11T15:10:21.463Z,0.55
2022-09-11T15:12:50.064Z,0.50
2022-09-11T15:15:19.323Z,0.70
2022-09-11T15:17:48.009Z,0.60
2022-09-11T15:20:19.047Z,0.70
2022-09-11T15:22:47.081Z,0.70
2022-09-11T15:25:15.785Z,0.80
2022-09-11T15:27:43.826Z,0.68
2022-09-11T15:30:13.009Z,2.08
2022-09-11T15:32:41.487Z,1.30
2022-09-11T15:35:10.040Z,0.70
2022-09-11T15:37:39.521Z,0.80
2022-09-11T15:40:09.172Z,0.80
2022-09-11T15:42:39.670Z,0.80
2022-09-11T15:45:10.093Z,1.00
2022-09-11T15:47:38.046Z,0.80
2022-09-11T15:50:06.761Z,0.80
2022-09-11T15:52:37.847Z,0.85
2022-09-11T15:55:08.539Z,0.65
2022-09-11T15:57:36.744Z,0.93
2022-09-11T16:00:05.971Z,0.80
2022-09-11T16:02:33.916Z,0.80
2022-09-11T16:05:02.092Z,0.80
2022-09-11T16:07:30.639Z,1.02
2022-09-11T16:09:58.749Z,0.90
2022-09-11T16:12:28.044Z,1.05
2022-09-11T16:14:56.317Z,1.00
2022-09-11T16:17:30.606Z,0.80
2022-09-11T16:19:59.335Z,1.00
2022-09-11T16:22:31.235Z,0.90
2022-09-11T16:25:00.576Z,0.88
2022-09-11T16:27:29.913Z,0.80
2022-09-11T16:32:46.440Z,1.02
2022-09-11T16:35:14.506Z,0.90
2022-09-11T16:37:42.524Z,0.70
2022-09-11T16:40:11.989Z,0.68
2022-09-11T16:42:41.337Z,0.80
2022-09-11T16:45:09.992Z,0.80
2022-09-11T16:47:38.336Z,0.80
2022-09-11T16:50:08.336Z,1.38
2022-09-11T16:52:36.794Z,1.00
2022-09-11T16:55:06.822Z,0.93
2022-09-11T16:57:35.319Z,0.90
2022-09-11T17:00:05.743Z,0.90
2022-09-11T17:02:34.627Z,1.23
2022-09-11T17:05:03.477Z,0.95
2022-09-11T17:07:31.741Z,0.88
2022-09-11T17:10:00.008Z,0.70
2022-09-11T17:12:28.143Z,1.10
2022-09-11T17:14:56.094Z,1.30
2022-09-11T17:17:26.135Z,1.85
2022-09-11T17:19:54.059Z,0.90
2022-09-11T17:22:22.036Z,1.20
2022-09-11T17:24:50.333Z,1.23
2022-09-11T17:27:18.375Z,0.82
2022-09-11T17:29:47.254Z,1.00
2022-09-11T17:32:28.154Z,0.90
2022-09-11T17:34:58.552Z,0.90
2022-09-11T17:37:27.761Z,0.90
2022-09-11T17:39:55.865Z,1.10
2022-09-11T17:42:23.935Z,0.90
2022-09-11T17:44:52.252Z,0.93
2022-09-11T17:47:20.171Z,1.02
2022-09-11T17:49:48.346Z,3.30
2022-09-11T17:52:19.505Z,1.17
2022-09-11T17:54:47.726Z,1.33
2022-09-11T17:57:15.988Z,0.90
2022-09-11T17:59:44.939Z,12.57
2022-09-11T18:02:14.328Z,1.00
2022-09-11T18:04:44.171Z,2.53
2022-09-11T18:07:12.708Z,2.15
2022-09-11T18:09:42.228Z,1.48
2022-09-11T18:12:11.262Z,1.05
2022-09-11T18:14:40.384Z,1.20
2022-09-11T18:17:08.347Z,4.57
2022-09-11T18:19:38.735Z,1.20
2022-09-11T18:22:09.885Z,1.35
2022-09-11T18:24:39.746Z,1.23
2022-09-11T18:27:12.020Z,1.13
2022-09-11T18:29:42.664Z,1.40
2022-09-11T18:32:10.716Z,1.25
2022-09-11T18:34:39.173Z,1.00
2022-09-11T18:37:07.697Z,1.10
2022-09-11T18:39:35.888Z,1.23
2022-09-11T18:42:06.702Z,1.38
2022-09-11T18:44:36.307Z,4.38
2022-09-11T18:47:04.376Z,1.20
2022-09-11T18:49:33.181Z,1.75
2022-09-11T18:52:01.271Z,1.85
2022-09-11T18:54:30.952Z,1.25
2022-09-11T18:57:00.266Z,1.20
2022-09-11T18:59:28.477Z,1.30
2022-09-11T19:01:58.105Z,1.25
2022-09-11T19:04:27.481Z,1.30
2022-09-11T19:06:55.432Z,1.30
2022-09-11T19:09:23.405Z,1.27
2022-09-11T19:11:52.473Z,1.13
2022-09-11T19:14:21.030Z,1.13
2022-09-11T19:16:49.188Z,1.15
2022-09-11T19:19:18.935Z,1.73
2022-09-11T19:21:46.882Z,1.33
2022-09-11T19:24:15.037Z,1.15
2022-09-11T19:26:45.387Z,1.42
2022-09-11T19:29:15.756Z,1.30
2022-09-11T19:31:44.238Z,2.42
2022-09-11T19:34:14.099Z,1.52
2022-09-11T19:36:43.439Z,1.48
2022-09-11T19:39:14.677Z,1.45
2022-09-11T19:41:42.836Z,1.38
2022-09-11T19:44:13.642Z,1.55
2022-09-11T19:46:43.269Z,1.50
2022-09-11T19:49:11.768Z,1.60
2022-09-11T19:51:41.928Z,1.23
2022-09-11T19:54:13.801Z,1.27
2022-09-11T19:56:44.273Z,1.42
2022-09-11T19:59:14.932Z,1.35
2022-09-11T20:01:43.829Z,1.20
2022-09-11T20:04:18.095Z,1.20
2022-09-11T20:09:30.513Z,1.45
2022-09-11T20:12:00.723Z,1.38
2022-09-11T20:14:30.253Z,1.40
2022-09-11T20:16:58.814Z,1.45
2022-09-11T20:19:28.697Z,1.35
2022-09-11T20:21:56.625Z,1.20
2022-09-11T20:24:26.043Z,1.30
2022-09-11T20:26:55.106Z,0.90
2022-09-11T20:29:23.052Z,1.80
2022-09-11T20:31:51.237Z,2.35
2022-09-11T20:34:22.237Z,1.48
2022-09-11T20:36:50.163Z,1.95
2022-09-11T20:39:20.010Z,1.40
2022-09-11T20:41:50.087Z,1.20
2022-09-11T20:44:18.217Z,1.15
2022-09-11T20:46:47.462Z,1.48
2022-09-11T20:49:16.099Z,1.40
2022-09-11T20:51:44.263Z,1.45
2022-09-11T20:54:12.353Z,1.67
2022-09-11T20:56:41.052Z,1.63
2022-09-11T20:59:10.612Z,1.23
2022-09-11T21:01:38.614Z,1.50
2022-09-11T21:04:07.312Z,1.63
2022-09-11T21:06:36.273Z,1.35
2022-09-11T21:09:06.852Z,1.35
2022-09-11T21:11:35.991Z,1.13
2022-09-11T21:14:04.163Z,1.42
2022-09-11T21:16:34.033Z,5.80
2022-09-11T21:19:03.781Z,1.75
2022-09-11T21:21:32.469Z,1.27
2022-09-11T21:24:03.727Z,1.60
2022-09-11T21:26:33.271Z,1.65
2022-09-11T21:29:03.543Z,1.75
2022-09-11T21:31:33.152Z,1.60
2022-09-11T21:34:01.378Z,5.57
2022-09-11T21:36:29.783Z,1.50
2022-09-11T21:38:57.700Z,1.65
2022-09-11T21:41:25.717Z,1.30
2022-09-11T21:43:53.992Z,1.15
2022-09-11T21:46:22.122Z,1.63
2022-09-11T21:48:51.487Z,1.42
2022-09-11T21:51:21.937Z,1.42
2022-09-11T21:53:55.705Z,1.65
2022-09-11T21:56:26.479Z,1.40
2022-09-11T21:58:55.000Z,2.00
2022-09-11T22:01:23.978Z,1.52
2022-09-11T22:03:54.631Z,1.27
2022-09-11T22:06:23.724Z,1.50
2022-09-11T22:08:53.346Z,1.70
2022-09-11T22:11:22.357Z,1.10
2022-09-11T22:13:52.819Z,1.95
2022-09-11T22:16:21.853Z,1.77
2022-09-11T22:18:52.364Z,1.38
2022-09-11T22:21:21.953Z,1.73
2022-09-11T22:23:50.113Z,1.60
2022-09-11T22:26:20.537Z,1.70
2022-09-11T22:28:48.806Z,1.55
2022-09-11T22:31:19.075Z,1.50
2022-09-11T22:33:47.628Z,1.42
2022-09-11T22:36:18.198Z,1.63
2022-09-11T22:38:48.865Z,1.23
2022-09-11T22:41:17.331Z,1.50
2022-09-11T22:43:47.461Z,1.50
2022-09-11T22:46:17.732Z,1.40
2022-09-11T22:48:45.656Z,1.90
2022-09-11T22:51:14.026Z,1.73
2022-09-11T22:53:43.205Z,1.40
2022-09-11T22:56:13.788Z,1.88
2022-09-11T22:58:42.073Z,1.25
2022-09-11T23:01:12.312Z,1.30
2022-09-11T23:03:40.409Z,1.40
2022-09-11T23:06:27.191Z,1.30
2022-09-11T23:08:56.004Z,1.50
2022-09-11T23:11:25.732Z,1.73
2022-09-11T23:13:54.077Z,1.50
2022-09-11T23:16:23.553Z,1.33
2022-09-11T23:18:55.246Z,1.45
2022-09-11T23:21:23.722Z,1.27
2022-09-11T23:23:54.440Z,1.58
2022-09-11T23:26:24.553Z,1.65
2022-09-11T23:28:54.211Z,1.48
2022-09-11T23:31:25.337Z,1.58
2022-09-11T23:33:54.368Z,1.35
2022-09-11T23:36:22.560Z,1.50
2022-09-11T23:38:51.876Z,1.60
2022-09-11T23:41:20.127Z,1.95
2022-09-11T23:43:48.083Z,1.67
2022-09-11T23:46:18.726Z,1.90
2022-09-11T23:48:47.160Z,1.50
2022-09-11T23:51:15.615Z,2.15
2022-09-11T23:53:48.025Z,1.40
2022-09-11T23:56:16.481Z,1.70
2022-09-11T23:58:45.560Z,1.95
